createdAt,value
2023-03-17T00:02:26.738Z,101073.38
2023-03-17T00:05:33.296Z,101078.59
2023-03-17T00:08:36.566Z,101076.94
2023-03-17T00:11:39.656Z,101077.31
2023-03-17T00:14:44.554Z,101076.00
2023-03-17T00:17:49.718Z,101085.84
2023-03-17T00:20:52.808Z,101086.06
2023-03-17T00:23:56.386Z,101084.06
2023-03-17T00:26:59.766Z,101082.31
2023-03-17T00:30:02.978Z,101080.34
2023-03-17T00:33:06.359Z,101081.81
2023-03-17T00:36:13.641Z,101079.34
2023-03-17T00:39:17.116Z,101081.78
2023-03-17T00:42:20.165Z,101076.09
2023-03-17T00:45:27.190Z,101073.97
2023-03-17T00:48:31.000Z,101061.78
2023-03-17T00:51:33.896Z,101068.75
2023-03-17T00:54:37.287Z,101062.91
2023-03-17T00:57:41.535Z,101062.44
2023-03-17T01:00:45.636Z,101059.81
2023-03-17T01:03:48.563Z,101063.41
2023-03-17T01:06:53.025Z,101064.69
2023-03-17T01:09:56.023Z,101054.91
2023-03-17T01:12:59.846Z,101059.47
2023-03-17T01:16:02.749Z,101066.31
2023-03-17T01:19:06.060Z,101056.25
2023-03-17T01:22:09.096Z,101065.53
2023-03-17T01:25:12.580Z,101065.34
2023-03-17T01:28:18.623Z,101052.19
2023-03-17T01:31:23.108Z,101061.63
2023-03-17T01:34:25.888Z,101062.16
2023-03-17T01:37:29.011Z,101061.50
2023-03-17T01:40:34.802Z,101059.84
2023-03-17T01:43:38.499Z,101054.63
2023-03-17T01:46:41.269Z,101062.97
2023-03-17T01:49:45.974Z,101055.97
2023-03-17T01:52:49.044Z,101056.94
2023-03-17T01:55:53.494Z,101062.44
2023-03-17T01:58:59.491Z,101072.56
2023-03-17T02:02:07.494Z,101075.81
2023-03-17T02:05:13.266Z,101069.47
2023-03-17T02:08:16.626Z,101048.13
2023-03-17T02:11:21.239Z,101048.31
2023-03-17T02:14:24.454Z,101059.38
2023-03-17T02:17:29.455Z,101070.28
2023-03-17T02:20:32.775Z,101063.94
2023-03-17T02:23:36.752Z,101075.16
2023-03-17T02:26:43.821Z,101079.88
2023-03-17T02:29:47.389Z,101078.72
2023-03-17T02:32:51.027Z,101082.31
2023-03-17T02:35:58.137Z,101091.78
2023-03-17T02:39:01.121Z,101081.97
2023-03-17T02:42:06.770Z,101084.56
2023-03-17T02:45:11.973Z,101094.03
2023-03-17T02:48:15.826Z,101090.41
2023-03-17T02:51:18.616Z,101096.12
2023-03-17T02:54:21.904Z,101087.34
2023-03-17T02:57:24.735Z,101098.06
2023-03-17T03:00:30.142Z,101099.13
2023-03-17T03:03:33.051Z,101089.09
2023-03-17T03:06:36.831Z,101080.66
2023-03-17T03:09:39.827Z,101078.06
2023-03-17T03:12:42.965Z,101088.59
2023-03-17T03:15:45.843Z,101087.94
2023-03-17T03:18:48.992Z,101068.94
2023-03-17T03:21:51.941Z,101084.84
2023-03-17T03:24:55.279Z,101089.56
2023-03-17T03:27:58.223Z,101084.22
2023-03-17T03:31:02.197Z,101074.13
2023-03-17T03:34:05.083Z,101077.69
2023-03-17T03:37:10.620Z,101077.06
2023-03-17T03:40:13.710Z,101078.69
2023-03-17T03:43:23.415Z,101077.06
2023-03-17T03:46:27.059Z,101084.34
2023-03-17T03:49:30.133Z,101082.44
2023-03-17T03:52:32.972Z,101078.69
2023-03-17T03:55:36.172Z,101076.44
2023-03-17T03:58:39.297Z,101075.44
2023-03-17T04:01:42.734Z,101080.63
2023-03-17T04:04:47.162Z,101071.88
2023-03-17T04:07:49.930Z,101075.44
2023-03-17T04:10:53.143Z,101066.16
2023-03-17T04:13:56.013Z,101072.09
2023-03-17T04:16:59.517Z,101060.22
2023-03-17T04:20:02.869Z,101054.88
2023-03-17T04:23:06.190Z,101066.44
2023-03-17T04:26:09.372Z,101065.66
2023-03-17T04:29:15.714Z,101061.28
2023-03-17T04:32:18.721Z,101072.16
2023-03-17T04:35:24.972Z,101080.78
2023-03-17T04:38:27.817Z,101080.97
2023-03-17T04:41:31.237Z,101067.00
2023-03-17T04:44:34.268Z,101078.69
2023-03-17T04:47:37.553Z,101086.12
2023-03-17T04:50:40.426Z,101093.28
2023-03-17T04:54:00.664Z,101093.16
2023-03-17T04:57:03.589Z,101082.25
2023-03-17T05:00:08.407Z,101098.22
2023-03-17T05:03:26.022Z,101091.72
2023-03-17T05:06:30.892Z,101094.31
2023-03-17T05:09:33.739Z,101094.69
2023-03-17T05:12:37.025Z,101103.31
2023-03-17T05:15:41.096Z,101099.81
2023-03-17T05:18:44.835Z,101097.41
2023-03-17T05:21:47.700Z,101102.16
2023-03-17T05:24:50.805Z,101105.75
2023-03-17T05:27:53.551Z,101107.06
2023-03-17T05:30:56.887Z,101097.78
2023-03-17T05:34:02.515Z,101108.06
2023-03-17T05:37:06.082Z,101110.34
2023-03-17T05:40:10.331Z,101101.47
2023-03-17T05:43:14.125Z,101103.91
2023-03-17T05:46:19.797Z,101103.47
2023-03-17T05:49:24.553Z,101102.25
2023-03-17T05:52:28.177Z,101103.03
2023-03-17T05:55:35.856Z,101100.75
2023-03-17T05:58:38.677Z,101103.47
2023-03-17T06:01:41.792Z,101099.50
2023-03-17T06:05:08.949Z,101103.38
2023-03-17T06:08:13.155Z,101108.75
2023-03-17T06:11:18.226Z,101108.09
2023-03-17T06:14:21.725Z,101106.38
2023-03-17T06:17:26.712Z,101112.44
2023-03-17T06:20:29.712Z,101101.66
2023-03-17T06:24:12.687Z,101121.47
2023-03-17T06:27:38.197Z,101131.00
2023-03-17T06:31:22.425Z,101134.72
2023-03-17T06:35:07.381Z,101138.47
2023-03-17T06:38:30.856Z,101139.94
2023-03-17T06:41:54.367Z,101141.81
2023-03-17T06:45:46.964Z,101142.16
2023-03-17T06:48:55.531Z,101147.28
2023-03-17T06:51:58.923Z,101154.53
2023-03-17T06:55:12.198Z,101161.12
2023-03-17T06:58:36.343Z,101158.31
2023-03-17T07:01:44.298Z,101163.28
2023-03-17T07:05:06.504Z,101159.41
2023-03-17T07:08:31.418Z,101166.13
2023-03-17T07:11:52.655Z,101171.12
2023-03-17T07:15:17.273Z,101176.31
2023-03-17T07:18:41.379Z,101170.16
2023-03-17T07:22:23.897Z,101173.38
2023-03-17T07:25:49.876Z,101172.13
2023-03-17T07:29:12.566Z,101174.62
2023-03-17T07:32:57.524Z,101170.59
2023-03-17T07:36:20.142Z,101176.47
2023-03-17T07:39:48.312Z,101180.00
2023-03-17T07:43:11.804Z,101185.69
2023-03-17T07:46:55.374Z,101186.72
2023-03-17T07:50:18.713Z,101186.03
2023-03-17T07:54:05.923Z,101184.38
2023-03-17T07:57:11.578Z,101186.56
2023-03-17T08:00:35.397Z,101186.63
2023-03-17T08:03:59.370Z,101184.62
2023-03-17T08:40:36.858Z,101174.62
2023-03-17T08:43:47.922Z,101166.75
2023-03-17T08:47:10.968Z,101177.84
2023-03-17T08:50:35.540Z,101174.44
2023-03-17T08:53:59.861Z,101171.09
2023-03-17T08:57:44.795Z,101170.03
2023-03-17T09:01:06.929Z,101175.25
2023-03-17T09:04:30.473Z,101165.28
2023-03-17T09:07:50.332Z,101162.00
2023-03-17T09:11:05.966Z,101172.91
2023-03-17T09:14:30.564Z,101165.09
2023-03-17T09:17:43.434Z,101163.34
2023-03-17T09:21:06.523Z,101162.00
2023-03-17T09:24:15.422Z,101151.13
2023-03-17T09:27:51.399Z,101155.09
2023-03-17T09:31:11.486Z,101153.22
2023-03-17T09:34:31.850Z,101146.28
2023-03-17T09:49:42.678Z,101132.13
2023-03-17T09:52:58.546Z,101132.13
2023-03-17T09:56:23.401Z,101134.12
2023-03-17T09:59:50.660Z,101132.66
2023-03-17T10:02:54.340Z,101131.66
2023-03-17T10:06:28.256Z,101124.78
2023-03-17T10:09:54.300Z,101122.66
2023-03-17T10:13:47.061Z,101120.53
2023-03-17T10:17:09.402Z,101125.37
2023-03-17T10:20:36.550Z,101124.84
2023-03-17T10:23:59.800Z,101119.97
2023-03-17T10:27:23.486Z,101113.88
2023-03-17T10:30:46.514Z,101111.69
2023-03-17T10:34:13.256Z,101107.47
2023-03-17T10:37:36.766Z,101104.19
2023-03-17T10:40:56.540Z,101109.38
2023-03-17T10:44:42.167Z,101101.13
2023-03-17T10:48:10.795Z,101100.28
2023-03-17T10:51:55.674Z,101084.19
2023-03-17T10:55:26.654Z,101089.00
2023-03-17T10:59:25.898Z,101083.16
2023-03-17T11:03:00.057Z,101093.84
2023-03-17T11:06:14.576Z,101075.22
2023-03-17T11:09:37.102Z,101074.31
2023-03-17T11:12:50.273Z,101061.34
2023-03-17T11:16:22.602Z,101044.34
2023-03-17T11:19:58.189Z,101051.75
2023-03-17T11:23:42.762Z,101045.66
2023-03-17T11:27:12.661Z,101034.84
2023-03-17T11:30:38.628Z,101039.25
2023-03-17T11:33:47.635Z,101028.81
2023-03-17T11:37:16.992Z,101034.59
2023-03-17T11:41:09.329Z,101020.69
2023-03-17T11:44:53.792Z,101020.94
2023-03-17T11:48:44.653Z,101011.06
2023-03-17T11:51:54.744Z,101003.06
2023-03-17T11:55:25.034Z,101001.53
2023-03-17T11:59:00.657Z,101006.06
2023-03-17T12:02:19.504Z,101005.00
2023-03-17T12:05:28.600Z,100987.16
2023-03-17T12:09:07.887Z,100977.78
2023-03-17T12:12:16.034Z,100977.91
2023-03-17T12:15:36.594Z,100967.53
2023-03-17T12:19:36.976Z,100963.47
2023-03-17T12:23:04.488Z,100967.69
2023-03-17T12:26:18.511Z,100954.47
2023-03-17T12:29:26.434Z,100955.97
2023-03-17T12:32:39.638Z,100944.75
2023-03-17T12:36:05.334Z,100939.59
2023-03-17T12:39:33.255Z,100947.16
2023-03-17T12:43:01.736Z,100933.50
2023-03-17T12:46:44.693Z,100941.09
2023-03-17T12:50:12.500Z,100943.19
2023-03-17T12:53:36.991Z,100925.56
2023-03-17T12:56:46.577Z,100942.53
2023-03-17T12:59:59.974Z,100916.00
2023-03-17T13:03:22.138Z,100923.50
2023-03-17T13:06:29.662Z,100909.31
2023-03-17T13:09:32.649Z,100904.16
2023-03-17T13:13:06.701Z,100901.37
2023-03-17T13:16:34.998Z,100902.88
2023-03-17T13:19:56.156Z,100908.03
2023-03-17T13:23:36.023Z,100906.75
2023-03-17T13:26:53.677Z,100896.78
2023-03-17T13:29:59.629Z,100900.22
2023-03-17T13:33:24.161Z,100891.72
2023-03-17T13:36:54.537Z,100891.00
2023-03-17T13:40:18.527Z,100886.72
2023-03-17T13:43:50.238Z,100888.81
2023-03-17T13:46:55.449Z,100884.06
2023-03-17T13:50:14.880Z,100888.03
2023-03-17T13:54:26.524Z,100879.75
2023-03-17T13:58:11.843Z,100883.00
2023-03-17T14:01:16.018Z,100878.28
2023-03-17T14:04:45.309Z,100871.50
2023-03-17T14:08:01.354Z,100861.09
2023-03-17T14:11:40.846Z,100861.66
2023-03-17T14:14:56.552Z,100849.78
2023-03-17T14:18:23.117Z,100847.28
2023-03-17T14:21:31.709Z,100839.47
2023-03-17T14:24:35.001Z,100833.94
2023-03-17T14:27:39.331Z,100831.56
2023-03-17T14:31:25.077Z,100835.50
2023-03-17T14:34:30.524Z,100831.22
2023-03-17T14:37:33.750Z,100828.06
2023-03-17T14:40:40.651Z,100831.50
2023-03-17T14:43:45.311Z,100823.50
2023-03-17T14:46:49.083Z,100816.78
2023-03-17T14:50:26.285Z,100805.34
2023-03-17T14:53:29.894Z,100800.84
2023-03-17T14:56:42.439Z,100798.97
2023-03-17T15:00:32.119Z,100790.75
2023-03-17T15:03:58.532Z,100787.56
2023-03-17T15:07:04.924Z,100788.66
2023-03-17T15:10:20.523Z,100793.37
2023-03-17T15:13:43.532Z,100793.69
2023-03-17T15:17:03.433Z,100775.78
2023-03-17T15:20:19.988Z,100773.13
2023-03-17T15:23:29.648Z,100769.66
2023-03-17T15:26:41.236Z,100764.91
2023-03-17T15:29:45.539Z,100756.56
2023-03-17T15:33:29.974Z,100761.09
2023-03-17T15:36:33.445Z,100763.78
2023-03-17T15:39:36.358Z,100759.47
2023-03-17T15:42:40.388Z,100760.53
2023-03-17T15:45:45.381Z,100746.38
2023-03-17T15:48:53.496Z,100743.44
2023-03-17T15:51:56.306Z,100744.41
2023-03-17T15:54:59.840Z,100749.44
2023-03-17T15:58:02.699Z,100741.72
2023-03-17T16:01:06.618Z,100752.37
2023-03-17T16:04:12.787Z,100740.69
2023-03-17T16:07:15.715Z,100746.75
2023-03-17T16:10:25.297Z,100749.69
2023-03-17T16:13:28.170Z,100744.25
2023-03-17T16:16:39.747Z,100741.56
2023-03-17T16:19:46.195Z,100743.38
2023-03-17T16:22:50.179Z,100756.91
2023-03-17T16:25:59.345Z,100761.00
2023-03-17T16:29:14.522Z,100764.38
2023-03-17T16:32:17.557Z,100750.22
2023-03-17T16:35:23.040Z,100751.22
2023-03-17T16:38:32.054Z,100753.88
2023-03-17T16:41:35.685Z,100757.25
2023-03-17T16:44:38.509Z,100745.75
2023-03-17T16:47:41.720Z,100750.22
2023-03-17T16:50:44.645Z,100760.06
2023-03-17T16:53:47.942Z,100753.56
2023-03-17T16:56:51.031Z,100758.09
2023-03-17T16:59:58.399Z,100760.00
2023-03-17T17:03:21.624Z,100758.84
2023-03-17T17:06:44.699Z,100758.63
2023-03-17T17:09:57.159Z,100755.66
2023-03-17T17:13:02.368Z,100749.13
2023-03-17T17:16:06.348Z,100761.47
2023-03-17T17:19:16.681Z,100759.47
2023-03-17T17:22:36.698Z,100757.19
2023-03-17T17:25:56.948Z,100750.88
2023-03-17T17:29:40.550Z,100745.22
2023-03-17T17:32:45.393Z,100735.84
2023-03-17T17:35:53.402Z,100746.97
2023-03-17T17:38:56.845Z,100733.81
2023-03-17T17:41:59.603Z,100739.78
2023-03-17T17:45:03.695Z,100737.00
2023-03-17T17:48:27.978Z,100744.38
2023-03-17T17:51:32.823Z,100741.91
2023-03-17T17:54:40.645Z,100741.31
2023-03-17T17:58:05.524Z,100743.56
2023-03-17T18:01:09.050Z,100740.69
2023-03-17T18:04:12.916Z,100750.16
2023-03-17T18:07:15.791Z,100751.03
2023-03-17T18:10:24.147Z,100746.81
2023-03-17T18:13:30.666Z,100750.97
2023-03-17T18:16:37.944Z,100754.34
2023-03-17T18:19:42.464Z,100756.38
2023-03-17T18:22:46.319Z,100754.03
2023-03-17T18:25:49.848Z,100744.69
2023-03-17T18:28:53.788Z,100738.34
2023-03-17T18:32:37.441Z,100736.25
2023-03-17T18:36:01.574Z,100733.31
2023-03-17T18:39:08.464Z,100737.94
2023-03-17T18:42:33.125Z,100726.34
2023-03-17T18:45:35.917Z,100735.25
2023-03-17T18:48:40.249Z,100737.28
2023-03-17T18:51:43.075Z,100739.72
2023-03-17T18:54:46.894Z,100738.13
2023-03-17T18:57:49.975Z,100740.12
2023-03-17T19:01:01.607Z,100747.84
2023-03-17T19:04:05.860Z,100744.44
2023-03-17T19:07:09.002Z,100737.00
2023-03-17T19:10:18.354Z,100734.97
2023-03-17T19:13:21.455Z,100734.53
2023-03-17T19:16:45.079Z,100735.37
2023-03-17T19:19:50.473Z,100733.41
2023-03-17T19:22:56.958Z,100727.91
2023-03-17T19:26:00.611Z,100728.75
2023-03-17T19:29:23.468Z,100729.38
2023-03-17T19:32:27.729Z,100724.91
2023-03-17T19:35:57.077Z,100714.22
2023-03-17T19:39:21.925Z,100725.34
2023-03-17T19:42:24.794Z,100722.28
2023-03-17T19:45:52.283Z,100724.53
2023-03-17T19:49:04.894Z,100719.28
2023-03-17T19:52:09.670Z,100719.59
2023-03-17T19:55:16.025Z,100709.53
2023-03-17T19:58:23.607Z,100703.50
2023-03-17T20:01:29.227Z,100703.06
2023-03-17T20:04:33.092Z,100704.31
2023-03-17T20:07:36.067Z,100697.72
2023-03-17T20:10:40.706Z,100712.53
2023-03-17T20:13:47.460Z,100704.00
2023-03-17T20:16:50.769Z,100704.00
2023-03-17T20:19:55.907Z,100698.75
2023-03-17T20:23:24.977Z,100702.81
2023-03-17T20:26:28.751Z,100705.41
2023-03-17T20:29:31.963Z,100708.50
2023-03-17T20:32:35.678Z,100707.72
2023-03-17T20:35:40.761Z,100703.31
2023-03-17T20:38:44.468Z,100695.28
2023-03-17T20:41:49.459Z,100693.03
2023-03-17T20:44:53.140Z,100697.47
2023-03-17T20:47:56.364Z,100695.66
2023-03-17T20:51:00.375Z,100697.63
2023-03-17T20:54:05.192Z,100703.69
2023-03-17T20:57:11.689Z,100703.59
2023-03-17T21:00:20.175Z,100684.78
2023-03-17T21:03:22.962Z,100690.19
2023-03-17T21:06:28.355Z,100683.34
2023-03-17T21:09:31.125Z,100675.53
2023-03-17T21:12:35.408Z,100681.75
2023-03-17T21:15:38.183Z,100679.50
2023-03-17T21:18:41.229Z,100680.56
2023-03-17T21:22:04.643Z,100680.66
2023-03-17T21:25:09.829Z,100678.25
2023-03-17T21:28:13.767Z,100679.00
2023-03-17T21:31:17.411Z,100675.53
2023-03-17T21:34:25.426Z,100672.94
2023-03-17T21:37:32.385Z,100674.37
2023-03-17T21:40:35.730Z,100672.59
2023-03-17T21:43:39.246Z,100673.44
2023-03-17T21:46:45.147Z,100675.66
2023-03-17T21:49:52.693Z,100668.44
2023-03-17T21:52:55.409Z,100669.00
2023-03-17T21:55:59.636Z,100680.87
2023-03-17T21:59:23.669Z,100680.22
2023-03-17T22:02:59.728Z,100679.28
2023-03-17T22:06:05.643Z,100681.16
2023-03-17T22:09:11.078Z,100685.00
2023-03-17T22:12:14.503Z,100691.28
2023-03-17T22:15:17.789Z,100688.22
2023-03-17T22:18:22.062Z,100685.00
2023-03-17T22:21:29.028Z,100688.88
2023-03-17T22:24:32.533Z,100689.66
2023-03-17T22:27:55.858Z,100679.09
